createdAt,value
2019-03-04T00:01:03.129Z,10.20
2019-03-04T00:03:32.939Z,10.20
2019-03-04T00:06:02.750Z,10.10
2019-03-04T00:08:33.016Z,10.10
2019-03-04T00:11:02.841Z,10.20
2019-03-04T00:13:32.635Z,10.00
2019-03-04T00:16:02.461Z,10.10
2019-03-04T00:18:32.155Z,10.10
2019-03-04T00:21:02.155Z,10.30
2019-03-04T00:23:31.883Z,10.20
2019-03-04T00:26:01.673Z,10.40
2019-03-04T00:28:31.389Z,10.30
2019-03-04T00:31:01.221Z,9.60
2019-03-04T00:33:30.935Z,10.00
2019-03-04T00:36:00.695Z,10.10
2019-03-04T00:38:30.436Z,10.40
2019-03-04T00:41:00.151Z,10.10
2019-03-04T00:45:59.280Z,10.10
2019-03-04T00:48:28.983Z,10.10
2019-03-04T00:50:58.727Z,10.10
2019-03-04T00:53:28.472Z,9.90
2019-03-04T00:55:58.242Z,10.20
2019-03-04T00:58:28.043Z,10.40
2019-03-04T01:00:57.858Z,10.10
2019-03-04T01:03:27.743Z,10.10
2019-03-04T01:05:57.486Z,10.10
2019-03-04T01:08:27.249Z,10.20
2019-03-04T01:10:57.017Z,10.00
2019-03-04T01:13:27.197Z,10.20
2019-03-04T01:15:56.989Z,10.10
2019-03-04T01:18:26.767Z,10.20
2019-03-04T01:20:56.483Z,10.10
2019-03-04T01:23:26.270Z,10.10
2019-03-04T01:25:56.103Z,10.10
2019-03-04T01:28:25.985Z,10.00
2019-03-04T01:30:55.768Z,9.90
2019-03-04T01:33:25.506Z,10.30
2019-03-04T01:38:24.302Z,10.30
2019-03-04T01:40:54.201Z,10.30
2019-03-04T01:43:23.952Z,10.50
2019-03-04T01:45:53.631Z,9.20
2019-03-04T01:48:23.515Z,10.20
2019-03-04T01:50:53.207Z,10.00
2019-03-04T01:53:22.946Z,10.10
2019-03-04T01:55:52.699Z,9.70
2019-03-04T01:58:22.403Z,10.00
2019-03-04T02:00:52.384Z,9.80
2019-03-04T02:03:22.119Z,9.90
2019-03-04T02:05:51.861Z,10.00
2019-03-04T02:10:50.611Z,9.60
2019-03-04T02:13:20.433Z,9.90
2019-03-04T02:15:50.121Z,10.20
2019-03-04T02:18:19.851Z,10.00
2019-03-04T02:20:49.506Z,9.90
2019-03-04T02:23:19.324Z,9.60
2019-03-04T02:26:26.848Z,9.90
2019-03-04T02:28:56.949Z,9.70
2019-03-04T02:31:26.708Z,9.00
2019-03-04T02:36:25.531Z,9.80
2019-03-04T02:38:55.193Z,9.90
2019-03-04T02:41:25.020Z,9.70
2019-03-04T02:43:54.756Z,9.80
2019-03-04T02:48:56.062Z,10.00
2019-03-04T02:51:25.797Z,10.70
2019-03-04T02:53:55.480Z,10.60
2019-03-04T02:58:54.338Z,10.50
2019-03-04T03:01:24.100Z,10.00
2019-03-04T03:03:53.912Z,9.90
2019-03-04T03:06:23.766Z,9.10
2019-03-04T03:08:53.521Z,10.00
2019-03-04T03:11:23.314Z,10.10
2019-03-04T03:13:52.998Z,10.80
2019-03-04T03:16:22.881Z,9.40
2019-03-04T03:18:52.593Z,9.70
2019-03-04T03:21:22.330Z,10.00
2019-03-04T03:23:52.142Z,9.80
2019-03-04T03:26:21.946Z,9.90
2019-03-04T03:28:51.655Z,10.10
2019-03-04T03:31:21.461Z,10.00
2019-03-04T03:33:51.158Z,10.90
2019-03-04T03:36:20.901Z,9.80
2019-03-04T03:38:50.663Z,10.00
2019-03-04T03:41:20.391Z,10.10
2019-03-04T03:43:50.235Z,10.20
2019-03-04T03:46:19.981Z,9.00
2019-03-04T03:48:49.681Z,9.70
2019-03-04T03:51:19.453Z,10.00
2019-03-04T03:53:49.175Z,9.40
2019-03-04T03:56:18.929Z,9.50
2019-03-04T03:58:48.688Z,9.50
2019-03-04T04:01:18.793Z,9.20
2019-03-04T04:03:48.472Z,9.10
2019-03-04T04:06:18.222Z,9.70
2019-03-04T04:08:47.896Z,8.90
2019-03-04T04:11:17.625Z,9.30
2019-03-04T04:13:47.366Z,9.70
2019-03-04T04:16:17.098Z,9.40
2019-03-04T04:18:46.799Z,9.60
2019-03-04T04:21:16.596Z,9.30
2019-03-04T04:23:46.423Z,9.00
2019-03-04T04:26:22.223Z,9.30
2019-03-04T04:29:12.510Z,9.40
2019-03-04T04:34:11.925Z,9.00
2019-03-04T04:36:41.628Z,9.40
2019-03-04T04:39:11.365Z,9.00
2019-03-04T04:41:41.174Z,8.80
2019-03-04T04:44:10.867Z,8.90
2019-03-04T04:46:51.862Z,9.50
2019-03-04T04:49:21.884Z,9.30
2019-03-04T04:51:52.112Z,9.30
2019-03-04T04:54:22.118Z,9.40
2019-03-04T04:56:51.921Z,9.10
2019-03-04T04:59:21.622Z,9.40
2019-03-04T05:01:51.377Z,9.40
2019-03-04T05:04:21.182Z,9.50
2019-03-04T05:06:50.930Z,9.40
2019-03-04T05:09:20.602Z,9.70
2019-03-04T05:11:50.434Z,9.70
2019-03-04T05:14:20.130Z,9.10
2019-03-04T05:16:49.879Z,9.30
2019-03-04T05:19:19.594Z,9.60
2019-03-04T05:21:51.295Z,9.70
2019-03-04T05:24:21.000Z,9.50
2019-03-04T05:26:50.751Z,10.40
2019-03-04T05:29:20.518Z,9.80
2019-03-04T05:31:50.472Z,9.40
2019-03-04T05:34:20.303Z,9.30
2019-03-04T05:36:50.101Z,9.30
2019-03-04T05:39:19.946Z,9.90
2019-03-04T05:41:50.721Z,9.50
2019-03-04T05:44:20.479Z,9.60
2019-03-04T05:46:50.176Z,10.60
2019-03-04T05:51:49.006Z,9.40
2019-03-04T05:54:18.741Z,9.50
2019-03-04T05:56:48.423Z,9.30
2019-03-04T05:59:19.969Z,9.60
2019-03-04T06:02:02.487Z,9.40
2019-03-04T06:07:07.444Z,10.00
2019-03-04T06:09:37.317Z,9.80
2019-03-04T06:12:07.316Z,9.70
2019-03-04T06:14:37.167Z,9.70
2019-03-04T06:17:06.973Z,9.90
2019-03-04T06:19:36.708Z,9.70
2019-03-04T06:24:36.690Z,9.90
2019-03-04T06:27:06.469Z,9.80
2019-03-04T06:29:36.284Z,9.80
2019-03-04T06:34:35.001Z,10.10
2019-03-04T06:37:04.720Z,9.70
2019-03-04T06:39:34.421Z,10.40
2019-03-04T06:42:04.448Z,10.70
2019-03-04T06:44:34.237Z,10.20
2019-03-04T06:47:03.957Z,10.20
2019-03-04T06:49:33.751Z,10.40
2019-03-04T06:52:03.595Z,10.50
2019-03-04T06:55:08.834Z,10.40
2019-03-04T06:57:42.486Z,10.20
2019-03-04T07:00:40.451Z,10.60
2019-03-04T07:03:20.418Z,10.30
2019-03-04T07:05:51.419Z,10.40
2019-03-04T07:09:09.038Z,10.20
2019-03-04T07:11:39.953Z,10.40
2019-03-04T07:14:09.667Z,10.80
2019-03-04T07:16:39.448Z,11.20
2019-03-04T07:19:32.091Z,11.50
2019-03-04T07:22:01.842Z,10.40
2019-03-04T07:24:31.640Z,10.50
2019-03-04T07:27:01.436Z,10.40
2019-03-04T07:29:31.240Z,10.70
2019-03-04T07:32:01.263Z,10.50
2019-03-04T07:34:33.615Z,10.70
2019-03-04T07:37:02.820Z,10.20
2019-03-04T07:39:32.566Z,10.50
2019-03-04T07:42:02.284Z,10.80
2019-03-04T07:44:32.106Z,11.00
2019-03-04T07:47:01.796Z,10.60
2019-03-04T07:49:31.700Z,10.10
2019-03-04T07:52:01.459Z,10.80
2019-03-04T07:54:31.246Z,11.10
2019-03-04T07:57:01.069Z,11.60
2019-03-04T07:59:30.868Z,10.90
2019-03-04T08:02:00.636Z,11.40
2019-03-04T08:04:30.369Z,11.30
2019-03-04T08:07:41.183Z,11.50
2019-03-04T08:10:44.544Z,11.40
2019-03-04T08:13:22.412Z,11.70
2019-03-04T08:15:54.857Z,11.80
2019-03-04T08:18:27.126Z,11.10
2019-03-04T08:20:57.010Z,11.70
2019-03-04T08:23:26.739Z,11.40
2019-03-04T08:25:56.613Z,11.50
2019-03-04T08:28:26.449Z,11.70
2019-03-04T08:30:56.201Z,12.00
2019-03-04T08:33:26.028Z,12.70
2019-03-04T08:35:55.831Z,11.90
2019-03-04T08:38:25.672Z,11.80
2019-03-04T08:40:55.529Z,12.00
2019-03-04T08:43:25.322Z,12.30
2019-03-04T08:45:56.462Z,12.20
2019-03-04T08:48:26.288Z,12.10
2019-03-04T08:50:56.040Z,12.00
2019-03-04T08:53:25.759Z,12.20
2019-03-04T08:55:55.543Z,12.00
2019-03-04T08:58:25.389Z,12.10
2019-03-04T09:00:55.185Z,12.40
2019-03-04T09:03:24.968Z,12.80
2019-03-04T09:05:54.714Z,12.50
2019-03-04T09:08:24.490Z,12.60
2019-03-04T09:10:54.286Z,13.30
2019-03-04T09:13:24.025Z,13.60
2019-03-04T09:15:53.812Z,13.10
2019-03-04T09:18:23.591Z,13.50
2019-03-04T09:20:53.289Z,13.70
2019-03-04T09:23:23.258Z,13.20
2019-03-04T09:26:00.327Z,13.10
2019-03-04T09:28:30.070Z,13.20
2019-03-04T09:30:59.800Z,13.50
2019-03-04T09:33:29.591Z,13.40
2019-03-04T09:35:59.331Z,13.50
2019-03-04T09:38:29.140Z,13.50
2019-03-04T09:43:27.950Z,13.50
2019-03-04T09:45:58.121Z,13.80
2019-03-04T09:48:27.931Z,13.40
2019-03-04T09:50:58.008Z,13.90
2019-03-04T09:53:28.128Z,13.40
2019-03-04T09:55:58.448Z,14.10
2019-03-04T09:58:28.161Z,13.60
2019-03-04T10:01:30.722Z,13.60
2019-03-04T10:04:12.793Z,13.80
2019-03-04T10:07:18.798Z,14.20
2019-03-04T10:10:32.771Z,14.20
2019-03-04T10:13:41.341Z,14.80
2019-03-04T10:16:21.273Z,14.70
2019-03-04T10:19:29.127Z,14.10
2019-03-04T10:22:18.041Z,14.10
2019-03-04T10:25:18.528Z,13.80
2019-03-04T10:27:59.097Z,13.70
2019-03-04T10:31:00.441Z,14.10
2019-03-04T10:36:24.086Z,14.30
2019-03-04T10:39:38.714Z,14.00
2019-03-04T10:43:03.985Z,13.60
2019-03-04T10:46:10.173Z,14.00
2019-03-04T10:48:40.428Z,13.50
2019-03-04T10:51:10.180Z,13.60
2019-03-04T10:53:41.043Z,13.50
2019-03-04T10:56:10.773Z,12.90
2019-03-04T10:58:42.516Z,13.50
2019-03-04T11:01:14.016Z,13.00
2019-03-04T11:03:43.882Z,13.50
2019-03-04T11:06:14.312Z,13.20
2019-03-04T11:08:45.263Z,12.90
2019-03-04T11:11:18.673Z,12.90
2019-03-04T11:13:48.561Z,13.10
2019-03-04T11:16:18.431Z,12.70
2019-03-04T11:18:49.706Z,13.30
2019-03-04T11:21:20.679Z,13.20
2019-03-04T11:23:50.400Z,13.30
2019-03-04T11:26:21.343Z,12.50
2019-03-04T11:28:51.989Z,12.50
2019-03-04T11:31:24.815Z,12.80
2019-03-04T11:33:54.583Z,13.10
2019-03-04T11:36:24.325Z,12.00
2019-03-04T11:38:59.048Z,12.80
2019-03-04T11:41:28.869Z,13.10
2019-03-04T11:43:58.603Z,12.70
2019-03-04T11:46:28.459Z,12.60
2019-03-04T11:48:58.230Z,13.70
2019-03-04T11:51:28.317Z,12.50
2019-03-04T11:53:58.267Z,13.90
2019-03-04T11:56:28.062Z,13.40
2019-03-04T11:58:57.877Z,13.60
2019-03-04T12:01:34.410Z,13.60
2019-03-04T12:04:04.812Z,13.20
2019-03-04T12:06:35.365Z,13.60
2019-03-04T12:09:11.334Z,13.60
2019-03-04T12:14:17.005Z,13.30
2019-03-04T12:16:48.740Z,13.90
2019-03-04T12:19:18.494Z,13.40
2019-03-04T12:21:51.690Z,13.50
2019-03-04T12:24:21.430Z,13.50
2019-03-04T12:26:57.160Z,13.40
2019-03-04T12:29:28.579Z,14.00
2019-03-04T12:32:03.693Z,13.90
2019-03-04T12:34:33.794Z,14.00
2019-03-04T12:42:02.499Z,14.20
2019-03-04T12:52:57.091Z,14.50
2019-03-04T12:55:27.644Z,15.40
2019-03-04T12:57:59.219Z,15.00
2019-03-04T13:00:33.538Z,14.80
2019-03-04T13:03:03.423Z,15.00
2019-03-04T13:05:34.156Z,15.30
2019-03-04T13:10:32.967Z,14.90
2019-03-04T13:13:03.831Z,15.30
2019-03-04T13:15:33.698Z,15.60
2019-03-04T13:18:03.562Z,15.70
2019-03-04T13:20:33.271Z,15.70
2019-03-04T13:23:03.073Z,15.80
2019-03-04T13:25:33.847Z,15.80
2019-03-04T13:28:08.142Z,15.90
2019-03-04T13:33:04.766Z,16.00
2019-03-04T13:35:34.672Z,15.70
2019-03-04T13:38:04.527Z,15.60
2019-03-04T13:40:34.461Z,15.40
2019-03-04T13:43:04.246Z,15.00
2019-03-04T13:45:33.990Z,15.30
2019-03-04T13:48:03.879Z,15.40
2019-03-04T13:50:33.979Z,15.50
2019-03-04T13:53:03.856Z,15.10
2019-03-04T13:58:03.531Z,15.80
2019-03-04T14:00:34.024Z,14.90
2019-03-04T14:03:03.793Z,14.50
2019-03-04T14:05:35.049Z,14.90
2019-03-04T14:08:10.367Z,14.50
2019-03-04T14:13:09.473Z,14.70
2019-03-04T14:15:40.868Z,14.80
2019-03-04T14:18:10.834Z,15.30
2019-03-04T14:20:40.622Z,15.10
2019-03-04T14:23:10.475Z,15.20
2019-03-04T14:25:40.673Z,15.80
2019-03-04T14:28:11.255Z,14.90
2019-03-04T14:30:41.176Z,14.80
2019-03-04T14:33:10.985Z,15.00
2019-03-04T14:35:40.721Z,14.80
2019-03-04T14:40:39.581Z,15.90
2019-03-04T14:45:39.058Z,16.10
2019-03-04T14:48:10.477Z,16.10
2019-03-04T14:50:42.781Z,16.70
2019-03-04T14:53:12.550Z,17.20
2019-03-04T14:55:42.234Z,16.80
2019-03-04T14:58:11.974Z,16.70
2019-03-04T15:00:42.491Z,16.60
2019-03-04T15:05:42.979Z,16.30
2019-03-04T15:10:41.946Z,15.80
2019-03-04T15:13:12.029Z,16.20
2019-03-04T15:15:41.781Z,15.80
2019-03-04T15:18:11.536Z,15.70
2019-03-04T15:20:41.286Z,15.50
2019-03-04T15:23:11.339Z,16.10
2019-03-04T15:25:41.228Z,14.90
2019-03-04T15:28:15.812Z,15.90
2019-03-04T15:33:18.488Z,14.80
2019-03-04T15:40:44.993Z,13.40
2019-03-04T15:43:14.810Z,13.30
2019-03-04T15:45:47.593Z,12.20
2019-03-04T15:48:18.048Z,12.80
2019-03-04T15:50:47.786Z,12.70
2019-03-04T15:53:17.936Z,13.10
2019-03-04T15:55:47.752Z,13.10
2019-03-04T16:00:46.837Z,12.00
2019-03-04T16:03:16.589Z,12.30
2019-03-04T16:05:46.472Z,12.20
2019-03-04T16:10:45.500Z,12.00
2019-03-04T16:18:14.021Z,11.90
2019-03-04T16:20:45.638Z,11.60
2019-03-04T16:23:16.567Z,11.50
2019-03-04T16:28:17.950Z,11.50
2019-03-04T16:30:56.254Z,11.00
2019-03-04T16:33:26.766Z,11.60
2019-03-04T16:35:56.563Z,11.30
2019-03-04T16:38:26.406Z,11.40
2019-03-04T16:40:56.160Z,10.60
2019-03-04T16:43:25.923Z,11.20
2019-03-04T16:45:55.791Z,10.80
2019-03-04T16:48:25.573Z,11.20
2019-03-04T16:50:55.491Z,11.10
2019-03-04T16:55:55.736Z,11.70
2019-03-04T17:00:56.159Z,10.80
2019-03-04T17:03:25.946Z,10.70
2019-03-04T17:05:56.143Z,10.90
2019-03-04T17:08:26.383Z,10.60
2019-03-04T17:10:57.736Z,10.70
2019-03-04T17:15:57.984Z,10.50
2019-03-04T17:18:30.846Z,11.10
2019-03-04T17:21:00.649Z,10.60
2019-03-04T17:26:01.091Z,10.60
2019-03-04T17:28:32.212Z,10.70
2019-03-04T17:31:02.015Z,11.00
2019-03-04T17:33:31.835Z,10.50
2019-03-04T17:38:30.796Z,10.90
2019-03-04T17:41:01.063Z,10.70
2019-03-04T17:43:31.745Z,10.80
2019-03-04T17:46:02.214Z,10.60
2019-03-04T17:48:32.136Z,10.70
2019-03-04T17:51:02.335Z,10.60
2019-03-04T17:53:32.209Z,11.00
2019-03-04T17:56:02.012Z,11.00
2019-03-04T18:01:00.996Z,11.20
2019-03-04T18:03:33.485Z,11.10
2019-03-04T18:06:05.834Z,11.30
2019-03-04T18:11:04.897Z,11.30
2019-03-04T18:13:36.100Z,11.00
2019-03-04T18:18:35.195Z,11.00
2019-03-04T18:21:05.109Z,10.80
2019-03-04T18:23:34.957Z,11.10
2019-03-04T18:26:11.871Z,11.50
2019-03-04T18:34:41.282Z,11.00
2019-03-04T18:37:30.156Z,11.30
2019-03-04T18:40:58.763Z,11.00
2019-03-04T18:44:07.965Z,11.30
2019-03-04T18:49:28.875Z,11.50
2019-03-04T18:52:06.242Z,12.20
2019-03-04T18:54:40.745Z,11.10
2019-03-04T18:57:10.633Z,11.30
2019-03-04T18:59:40.451Z,11.40
2019-03-04T19:04:39.410Z,10.80
2019-03-04T19:07:09.283Z,11.20
2019-03-04T19:12:08.291Z,11.70
2019-03-04T19:14:38.127Z,11.00
2019-03-04T19:17:08.034Z,11.40
2019-03-04T19:19:39.401Z,11.30
2019-03-04T19:22:16.377Z,11.70
2019-03-04T19:24:48.781Z,11.50
2019-03-04T19:27:18.646Z,11.50
2019-03-04T19:29:48.637Z,11.70
2019-03-04T19:32:19.268Z,11.40
2019-03-04T19:34:49.053Z,11.50
2019-03-04T19:37:18.781Z,12.00
2019-03-04T19:39:52.949Z,12.20
2019-03-04T19:42:22.798Z,11.80
2019-03-04T19:44:52.811Z,11.60
2019-03-04T19:47:41.170Z,12.00
2019-03-04T19:50:19.261Z,11.80
2019-03-04T19:52:53.805Z,12.10
2019-03-04T19:55:51.508Z,11.70
2019-03-04T19:58:22.768Z,11.00
2019-03-04T20:03:21.882Z,11.10
2019-03-04T20:08:21.703Z,10.60
2019-03-04T20:10:54.750Z,10.70
2019-03-04T20:13:25.344Z,10.60
2019-03-04T20:15:56.151Z,9.90
2019-03-04T20:18:25.953Z,10.20
2019-03-04T20:20:55.716Z,10.00
2019-03-04T20:23:28.611Z,9.40
2019-03-04T20:28:27.477Z,9.10
2019-03-04T20:31:00.444Z,9.00
2019-03-04T20:33:33.756Z,8.70
2019-03-04T20:36:03.838Z,8.50
2019-03-04T20:38:36.313Z,8.20
2019-03-04T20:43:35.317Z,8.70
2019-03-04T20:48:34.585Z,8.00
2019-03-04T20:51:04.452Z,8.90
2019-03-04T20:53:34.361Z,8.70
2019-03-04T20:56:04.287Z,8.10
2019-03-04T20:58:34.435Z,8.20
2019-03-04T21:01:04.411Z,8.50
2019-03-04T21:03:35.086Z,7.80
2019-03-04T21:08:34.161Z,8.10
2019-03-04T21:11:04.422Z,8.60
2019-03-04T21:13:35.900Z,8.00
2019-03-04T21:18:35.353Z,7.70
2019-03-04T21:21:06.676Z,7.20
2019-03-04T21:23:36.470Z,8.80
2019-03-04T21:26:23.407Z,8.30
2019-03-04T21:29:30.502Z,7.80
2019-03-04T21:32:30.456Z,7.80
2019-03-04T21:35:12.480Z,7.60
2019-03-04T21:40:22.888Z,7.90
2019-03-04T21:46:10.384Z,7.20
2019-03-04T21:48:49.816Z,7.90
2019-03-04T21:51:42.530Z,8.20
2019-03-04T21:54:12.303Z,8.10
2019-03-04T21:57:16.313Z,8.10
2019-03-04T22:02:40.452Z,7.90
2019-03-04T22:05:12.902Z,8.30
2019-03-04T22:07:42.802Z,7.90
2019-03-04T22:10:13.621Z,7.60
2019-03-04T22:12:45.006Z,8.40
2019-03-04T22:15:15.060Z,7.90
2019-03-04T22:17:44.913Z,7.90
2019-03-04T22:22:44.103Z,8.20
2019-03-04T22:25:14.091Z,7.90
2019-03-04T22:27:43.798Z,8.00
2019-03-04T22:30:15.242Z,7.80
2019-03-04T22:35:17.019Z,7.80
2019-03-04T22:37:46.516Z,8.00
2019-03-04T22:40:17.676Z,8.40
2019-03-04T22:42:47.364Z,8.10
2019-03-04T22:45:18.211Z,7.90
2019-03-04T22:47:48.619Z,7.90
2019-03-04T22:50:18.960Z,7.20
2019-03-04T22:52:48.745Z,8.00
2019-03-04T22:55:27.493Z,7.80
2019-03-04T22:57:57.245Z,8.70
2019-03-04T23:01:17.161Z,7.90
2019-03-04T23:03:48.337Z,8.10
2019-03-04T23:06:21.624Z,8.00
2019-03-04T23:11:22.184Z,8.00
2019-03-04T23:16:35.199Z,8.00
2019-03-04T23:19:05.006Z,7.90
2019-03-04T23:21:34.695Z,8.00
2019-03-04T23:24:05.994Z,7.90
2019-03-04T23:26:35.750Z,8.10
2019-03-04T23:29:05.441Z,8.30
2019-03-04T23:31:35.361Z,8.10
2019-03-04T23:34:05.351Z,9.10
2019-03-04T23:36:35.188Z,7.90
2019-03-04T23:39:07.338Z,7.60
2019-03-04T23:41:37.109Z,7.90
2019-03-04T23:44:07.031Z,7.80
2019-03-04T23:46:36.673Z,7.60
2019-03-04T23:49:06.383Z,8.80
2019-03-04T23:51:36.120Z,7.90
2019-03-04T23:54:05.829Z,8.10
2019-03-04T23:56:35.522Z,7.30
2019-03-04T23:59:05.305Z,7.60
